Terminal Aerodrome Forecast
Issued by NWS St Louis, MO

Home | Current Version | Previous Version | Text Only | Print | Product List | Glossary On
Versions: 1 2 3 4 5 6 7 8 9 10 11 12 13 14 15 16 17 18 19 20 21 22 23 24 25 26 27 28 29
000
FTUS43 KLSX 261100
TAFSTL
TAF
KSTL 261138Z 2612/2718 13008KT P6SM OVC080
     FM261600 15008KT 5SM -RASN BR OVC025
      TEMPO 2617/2621 2SM -SN BR SCT006 OVC015
     FM262200 VRB03KT 5SM -RASN BR SCT007 OVC015
     FM270300 32007KT P6SM -SHSN OVC025=

USA.gov is the U.S. government's official web portal to all federal, state and local government web resources and services.